Time;durP1;ratioP1;P1;durP2;ratioP2;P2;SDS_P1;SDS_P2;PMS_P1;PMS_P2;Temp;Humidity;BMP_temperature;BMP_pressure;BME280_temperature;BME280_humidity;BME280_pressure;Samples;Min_cycle;Max_cycle;Signal;HPM_P1;HPM_P2
2020/12/14 00:00:28;;;;;;;4.33;1.70;;;9.20;99.90;;;;;;4902785;29;20648;-86
2020/12/14 00:02:58;;;;;;;5.37;1.57;;;9.10;99.90;;;;;;4911332;29;20198;-88
2020/12/14 00:05:24;;;;;;;6.07;1.80;;;9.10;99.90;;;;;;4912351;29;20178;-89
2020/12/14 00:07:49;;;;;;;4.27;1.37;;;9.10;99.90;;;;;;4910849;29;20193;-87
2020/12/14 00:10:15;;;;;;;5.33;1.93;;;9.10;99.90;;;;;;4921038;29;20170;-86
2020/12/14 00:12:41;;;;;;;4.50;2.03;;;9.30;99.90;;;;;;4921819;29;20179;-84
2020/12/14 00:15:08;;;;;;;4.10;1.80;;;9.20;99.90;;;;;;4901757;29;20225;-83
2020/12/14 00:17:33;;;;;;;5.23;1.97;;;9.20;99.90;;;;;;4918534;29;20246;-85
2020/12/14 00:20:01;;;;;;;3.60;1.50;;;9.20;99.90;;;;;;4916617;29;20210;-83
2020/12/14 00:22:36;;;;;;;2.90;1.60;;;9.20;99.90;;;;;;4914740;29;20178;-84
2020/12/14 00:25:05;;;;;;;3.10;1.63;;;9.20;99.90;;;;;;4911362;29;20174;-85
2020/12/14 00:27:31;;;;;;;4.13;1.80;;;9.20;99.90;;;;;;4902943;29;20186;-84
2020/12/14 00:29:56;;;;;;;8.03;2.00;;;9.20;99.90;;;;;;4902050;29;20185;-85
2020/12/14 00:32:23;;;;;;;6.40;1.73;;;9.20;99.90;;;;;;4913519;29;20246;-84
2020/12/14 00:34:48;;;;;;;5.20;2.00;;;9.10;99.90;;;;;;4906942;29;20210;-86
2020/12/14 00:37:14;;;;;;;4.17;1.67;;;9.20;99.90;;;;;;4902232;29;20174;-86
2020/12/14 00:39:41;;;;;;;4.00;1.60;;;9.20;99.90;;;;;;4902117;29;20174;-85
2020/12/14 00:42:07;;;;;;;6.93;2.07;;;9.40;99.90;;;;;;4906269;29;20186;-83
2020/12/14 00:44:33;;;;;;;4.07;2.20;;;9.20;99.90;;;;;;4922264;29;20174;-84
2020/12/14 00:46:59;;;;;;;4.90;1.40;;;9.40;99.90;;;;;;4921991;29;20276;-85
2020/12/14 00:49:26;;;;;;;5.67;1.73;;;9.20;99.90;;;;;;4914609;29;20297;-85
2020/12/14 00:51:51;;;;;;;5.17;1.80;;;9.20;99.90;;;;;;4910474;29;20182;-84
2020/12/14 00:54:20;;;;;;;3.43;1.77;;;9.20;99.90;;;;;;4906614;29;20185;-84
2020/12/14 00:56:46;;;;;;;4.17;2.23;;;9.40;99.90;;;;;;4903923;29;20242;-84
2020/12/14 00:59:12;;;;;;;3.43;1.60;;;9.20;99.90;;;;;;4902829;29;20662;-85
2020/12/14 01:01:37;;;;;;;3.83;1.67;;;9.20;99.90;;;;;;4904477;29;20190;-85
2020/12/14 01:04:03;;;;;;;5.77;2.80;;;9.20;99.90;;;;;;4907558;29;20182;-88
2020/12/14 01:06:29;;;;;;;4.37;1.70;;;9.20;99.90;;;;;;4905506;29;20220;-89
2020/12/14 01:08:57;;;;;;;4.03;2.00;;;9.30;99.90;;;;;;4903689;29;20182;-88
2020/12/14 01:11:28;;;;;;;5.53;1.70;;;9.20;99.90;;;;;;4907075;29;20565;-89
2020/12/14 01:13:55;;;;;;;4.00;1.97;;;9.20;99.90;;;;;;4910106;29;20600;-88
2020/12/14 01:16:22;;;;;;;5.20;1.70;;;9.20;99.90;;;;;;4908036;29;20428;-88
2020/12/14 01:18:50;;;;;;;4.63;1.93;;;9.20;99.90;;;;;;4909717;29;20205;-88
2020/12/14 01:21:22;;;;;;;3.90;1.73;;;9.20;99.90;;;;;;4905131;29;20213;-87
2020/12/14 01:23:49;;;;;;;3.33;1.83;;;9.20;99.90;;;;;;4888436;29;20733;-88
2020/12/14 01:26:15;;;;;;;4.70;1.97;;;9.20;99.90;;;;;;4902212;29;20179;-88
2020/12/14 01:28:40;;;;;;;5.97;1.90;;;9.40;99.90;;;;;;4900985;29;20190;-87
2020/12/14 01:31:06;;;;;;;2.73;1.70;;;9.30;99.90;;;;;;4906423;29;20175;-84
2020/12/14 01:33:32;;;;;;;3.93;1.70;;;9.30;99.90;;;;;;4901802;29;20208;-85
2020/12/14 01:35:58;;;;;;;4.57;1.87;;;9.30;99.90;;;;;;4902448;29;20209;-88
2020/12/14 01:38:23;;;;;;;4.77;1.83;;;9.30;99.90;;;;;;4901724;29;20630;-85
2020/12/14 01:40:49;;;;;;;6.10;1.70;;;9.40;99.90;;;;;;4901905;29;20186;-84
2020/12/14 01:43:14;;;;;;;3.43;1.80;;;9.30;99.90;;;;;;4914944;29;20200;-84
2020/12/14 01:45:40;;;;;;;3.33;1.40;;;9.40;99.90;;;;;;4917330;29;20190;-85
2020/12/14 01:48:08;;;;;;;5.30;1.90;;;9.30;99.90;;;;;;4915439;29;20178;-84
2020/12/14 01:50:37;;;;;;;3.13;1.70;;;9.30;99.90;;;;;;4916497;29;20170;-84
2020/12/14 01:53:06;;;;;;;4.37;1.57;;;9.30;99.90;;;;;;4904209;29;20182;-84
2020/12/14 01:55:40;;;;;;;4.00;1.70;;;9.40;99.90;;;;;;4900215;29;20217;-84
2020/12/14 01:58:05;;;;;;;5.90;1.73;;;9.40;99.90;;;;;;4901196;29;20271;-85
2020/12/14 02:00:31;;;;;;;7.33;1.87;;;9.50;99.90;;;;;;4901144;29;20278;-85
2020/12/14 02:02:57;;;;;;;4.23;1.90;;;9.40;99.90;;;;;;4919458;29;20174;-84
2020/12/14 02:05:25;;;;;;;6.17;2.03;;;9.30;99.90;;;;;;4897168;29;20194;-85
2020/12/14 02:07:50;;;;;;;5.77;2.10;;;9.40;99.90;;;;;;4907440;29;20178;-87
2020/12/14 02:10:23;;;;;;;3.43;2.20;;;9.30;99.90;;;;;;4905695;29;20171;-85
2020/12/14 02:12:48;;;;;;;3.70;1.43;;;9.40;99.90;;;;;;4903282;29;20182;-85
2020/12/14 02:15:15;;;;;;;3.60;1.77;;;9.40;99.90;;;;;;4903422;29;20297;-86
2020/12/14 02:17:40;;;;;;;3.63;2.17;;;9.50;99.90;;;;;;4903229;29;20232;-88
2020/12/14 02:20:06;;;;;;;5.33;1.87;;;9.40;99.90;;;;;;4903670;29;20651;-86
2020/12/14 02:22:32;;;;;;;4.20;1.70;;;9.40;99.90;;;;;;4912395;29;20162;-85
2020/12/14 02:25:01;;;;;;;3.57;2.13;;;9.40;99.90;;;;;;4923122;29;20166;-84
2020/12/14 02:27:29;;;;;;;4.13;1.80;;;9.40;99.90;;;;;;4922569;29;20170;-86
2020/12/14 02:29:55;;;;;;;3.50;1.73;;;9.40;99.90;;;;;;4924191;29;20190;-82
2020/12/14 02:32:24;;;;;;;5.70;1.80;;;9.40;99.90;;;;;;4924957;29;20178;-85
2020/12/14 02:34:50;;;;;;;2.07;1.53;;;9.50;99.90;;;;;;4924318;29;20220;-86
2020/12/14 02:37:27;;;;;;;4.57;1.63;;;9.50;99.90;;;;;;4922800;29;20205;-84
2020/12/14 02:40:30;;;;;;;3.30;1.73;;;9.50;99.90;;;;;;4919492;29;20186;-85
2020/12/14 02:42:56;;;;;;;3.07;1.70;;;9.40;99.90;;;;;;4922670;29;20179;-86
2020/12/14 02:45:22;;;;;;;3.10;1.70;;;9.50;99.90;;;;;;4922369;29;20265;-86
2020/12/14 02:47:47;;;;;;;4.57;1.87;;;9.40;99.90;;;;;;4919311;29;20214;-84
2020/12/14 02:50:13;;;;;;;2.20;1.33;;;9.40;99.90;;;;;;4918086;29;20206;-84
2020/12/14 02:52:38;;;;;;;3.67;1.60;;;9.50;99.90;;;;;;4901410;29;20238;-85
2020/12/14 02:55:04;;;;;;;3.63;1.57;;;9.40;99.90;;;;;;4901476;29;20307;-85
2020/12/14 02:57:30;;;;;;;3.43;1.60;;;9.40;99.90;;;;;;4900901;29;20674;-87
2020/12/14 02:59:55;;;;;;;3.23;1.40;;;9.50;99.90;;;;;;4901273;29;20170;-84
2020/12/14 03:02:22;;;;;;;3.77;1.60;;;9.50;99.90;;;;;;4900582;29;20650;-85
2020/12/14 03:04:48;;;;;;;5.23;1.60;;;9.40;99.90;;;;;;4901329;29;20285;-85
2020/12/14 03:07:13;;;;;;;2.23;1.63;;;9.50;99.90;;;;;;4903818;29;20650;-84
2020/12/14 03:09:39;;;;;;;3.33;1.40;;;9.40;99.90;;;;;;4913698;29;20174;-84
2020/12/14 03:12:05;;;;;;;2.43;1.43;;;9.50;99.90;;;;;;4918425;29;20167;-83
2020/12/14 03:14:30;;;;;;;3.63;1.80;;;9.50;99.90;;;;;;4904172;29;20643;-86
2020/12/14 03:16:56;;;;;;;4.60;1.70;;;9.50;99.90;;;;;;4905436;29;20265;-84
2020/12/14 03:19:22;;;;;;;2.70;1.60;;;9.50;99.90;;;;;;4901683;29;20269;-85
2020/12/14 03:21:50;;;;;;;4.00;1.80;;;9.50;99.90;;;;;;4899699;29;20725;-85
2020/12/14 03:24:16;;;;;;;4.67;1.80;;;9.60;99.90;;;;;;4899528;29;20178;-85
2020/12/14 03:26:41;;;;;;;2.97;1.73;;;9.70;99.90;;;;;;4904662;29;20185;-83
2020/12/14 03:29:08;;;;;;;4.50;1.90;;;9.60;99.90;;;;;;4916532;29;20183;-82
2020/12/14 03:31:36;;;;;;;5.10;1.80;;;9.60;99.90;;;;;;4922499;29;20163;-85
2020/12/14 03:34:02;;;;;;;5.57;1.80;;;9.60;99.90;;;;;;4923162;29;20174;-84
2020/12/14 03:36:28;;;;;;;4.73;1.90;;;9.60;99.90;;;;;;4911054;29;20210;-85
2020/12/14 03:38:54;;;;;;;3.53;1.87;;;9.60;99.90;;;;;;4902817;29;20178;-85
2020/12/14 03:41:24;;;;;;;4.57;2.03;;;9.60;99.90;;;;;;4903021;29;20182;-86
2020/12/14 03:43:50;;;;;;;4.23;1.70;;;9.70;99.90;;;;;;4903804;29;20230;-85
2020/12/14 03:46:23;;;;;;;4.97;1.80;;;9.60;99.90;;;;;;4900906;29;20206;-86
2020/12/14 03:48:54;;;;;;;3.10;1.90;;;9.70;99.90;;;;;;4898983;29;20198;-84
2020/12/14 03:51:21;;;;;;;4.63;1.97;;;9.70;99.90;;;;;;4899277;29;20643;-85
2020/12/14 03:53:47;;;;;;;4.67;1.93;;;9.80;99.90;;;;;;4899454;29;20230;-86
2020/12/14 03:56:13;;;;;;;2.70;2.00;;;9.80;99.90;;;;;;4898998;29;20575;-85
2020/12/14 03:58:38;;;;;;;3.03;1.67;;;9.80;99.90;;;;;;4900692;29;20174;-84
2020/12/14 04:01:05;;;;;;;3.77;2.07;;;9.90;99.90;;;;;;4901395;29;20722;-84
2020/12/14 04:03:32;;;;;;;3.77;1.93;;;9.90;99.90;;;;;;4898527;29;20179;-85
2020/12/14 04:05:59;;;;;;;2.70;1.80;;;9.80;99.90;;;;;;4899293;29;20189;-85
2020/12/14 04:08:25;;;;;;;3.67;2.17;;;9.80;99.90;;;;;;4899145;29;20630;-84
2020/12/14 04:10:50;;;;;;;4.93;2.20;;;9.80;99.90;;;;;;4899094;29;20197;-84
2020/12/14 04:13:16;;;;;;;6.00;2.10;;;9.80;99.90;;;;;;4898699;29;20185;-84
2020/12/14 04:15:42;;;;;;;5.10;2.50;;;10.00;99.90;;;;;;4900109;29;20648;-86
2020/12/14 04:18:07;;;;;;;5.43;2.37;;;9.90;99.90;;;;;;4883901;29;20189;-87
2020/12/14 04:20:33;;;;;;;3.97;2.10;;;10.10;99.90;;;;;;4898758;29;20192;-85
2020/12/14 04:23:01;;;;;;;6.77;4.17;;;9.90;99.90;;;;;;4898576;29;20269;-84
2020/12/14 04:25:27;;;;;;;6.17;2.47;;;9.90;99.90;;;;;;4898594;29;20623;-84
2020/12/14 04:27:58;;;;;;;4.37;2.10;;;10.00;99.90;;;;;;4897995;29;20178;-85
2020/12/14 04:30:24;;;;;;;6.30;2.43;;;10.00;99.90;;;;;;4899061;29;20196;-84
2020/12/14 04:32:50;;;;;;;4.13;1.93;;;10.10;99.90;;;;;;4898669;29;20639;-85
2020/12/14 04:35:15;;;;;;;5.97;2.10;;;10.10;99.90;;;;;;4898704;29;20240;-87
2020/12/14 04:37:41;;;;;;;4.83;2.00;;;10.10;99.90;;;;;;4898357;29;20313;-85
2020/12/14 04:40:07;;;;;;;3.47;1.80;;;10.10;99.90;;;;;;4898458;29;20182;-83
2020/12/14 04:42:32;;;;;;;4.33;1.90;;;10.10;99.90;;;;;;4899082;29;20190;-86
2020/12/14 04:44:59;;;;;;;3.67;1.67;;;10.00;99.90;;;;;;4901260;29;20710;-84
2020/12/14 04:47:27;;;;;;;4.83;1.83;;;10.20;99.90;;;;;;4886745;29;20209;-86
2020/12/14 04:49:54;;;;;;;4.20;1.77;;;10.20;99.90;;;;;;4910560;29;20194;-83
2020/12/14 04:52:22;;;;;;;3.53;1.73;;;10.20;99.90;;;;;;4908622;29;20179;-83
2020/12/14 04:54:48;;;;;;;4.03;1.70;;;10.20;99.90;;;;;;4909170;29;20214;-82
2020/12/14 04:57:14;;;;;;;6.73;1.93;;;10.30;99.90;;;;;;4912819;29;20177;-83
2020/12/14 04:59:40;;;;;;;3.70;1.73;;;10.20;99.90;;;;;;4902277;29;20186;-87
2020/12/14 05:02:08;;;;;;;4.07;1.53;;;10.20;99.90;;;;;;4899144;29;20698;-84
2020/12/14 05:04:37;;;;;;;3.90;2.23;;;10.30;99.90;;;;;;4899989;29;20186;-86
2020/12/14 05:07:03;;;;;;;4.17;2.17;;;10.20;99.90;;;;;;4902284;29;20185;-85
2020/12/14 05:09:30;;;;;;;4.53;2.00;;;10.40;99.90;;;;;;4911015;29;20182;-85
2020/12/14 05:11:56;;;;;;;2.70;1.30;;;10.30;99.90;;;;;;4912655;29;20189;-84
2020/12/14 05:14:24;;;;;;;2.20;1.33;;;10.30;99.90;;;;;;4911114;29;20636;-83
2020/12/14 05:16:51;;;;;;;2.67;1.67;;;10.30;99.90;;;;;;4921834;29;20206;-84
2020/12/14 05:19:27;;;;;;;4.23;1.53;;;10.30;99.90;;;;;;4918811;29;20186;-87
2020/12/14 05:21:55;;;;;;;4.93;1.77;;;10.30;99.90;;;;;;4908179;29;20190;-87
2020/12/14 05:24:31;;;;;;;3.10;1.53;;;10.40;99.90;;;;;;4902868;29;20194;-87
2020/12/14 05:26:59;;;;;;;3.63;1.50;;;10.30;99.90;;;;;;4899931;29;20182;-86
2020/12/14 05:29:29;;;;;;;3.93;1.60;;;10.30;99.90;;;;;;4900260;29;20181;-88
2020/12/14 05:32:13;;;;;;;3.67;1.80;;;10.40;99.90;;;;;;4899309;29;20615;-86
2020/12/14 05:34:41;;;;;;;2.83;1.70;;;10.50;99.90;;;;;;4898747;29;20627;-84
2020/12/14 05:37:16;;;;;;;3.17;1.53;;;10.40;99.90;;;;;;4883910;29;20182;-86
2020/12/14 05:39:43;;;;;;;5.50;1.80;;;10.50;99.90;;;;;;4899938;29;20205;-85
2020/12/14 05:42:13;;;;;;;4.83;1.87;;;10.40;99.90;;;;;;4902786;29;20182;-86
2020/12/14 05:44:40;;;;;;;2.30;1.50;;;10.40;99.90;;;;;;4902309;29;20181;-85
2020/12/14 05:47:31;;;;;;;4.63;1.67;;;10.50;99.90;;;;;;4887592;29;20293;-84
2020/12/14 05:50:00;;;;;;;4.30;1.53;;;10.50;99.90;;;;;;4921170;29;20267;-83
2020/12/14 05:52:40;;;;;;;1.87;1.30;;;10.40;99.90;;;;;;4904518;29;20245;-85
2020/12/14 05:55:09;;;;;;;1.87;1.30;;;10.50;99.90;;;;;;4902978;29;20214;-87
2020/12/14 05:57:37;;;;;;;2.57;1.20;;;10.50;99.90;;;;;;4884342;29;20191;-84
2020/12/14 06:00:10;;;;;;;2.30;1.37;;;10.50;99.90;;;;;;4885696;29;20571;-85
2020/12/14 06:02:37;;;;;;;2.87;1.33;;;10.50;99.90;;;;;;4886614;29;20175;-86
2020/12/14 06:05:05;;;;;;;2.57;1.20;;;10.50;99.90;;;;;;4903071;29;20171;-88
2020/12/14 06:07:32;;;;;;;2.80;1.30;;;10.50;99.90;;;;;;4894534;29;20174;-86
2020/12/14 06:10:12;;;;;;;3.37;1.47;;;10.50;99.90;;;;;;4925188;29;20174;-86
2020/12/14 06:12:42;;;;;;;2.20;1.40;;;10.60;99.90;;;;;;4923507;29;20202;-85
2020/12/14 06:15:47;;;;;;;2.60;1.30;;;10.50;99.90;;;;;;4919685;29;20221;-86
2020/12/14 06:18:32;;;;;;;3.23;1.50;;;10.50;99.90;;;;;;4908493;29;20166;-85
2020/12/14 06:21:11;;;;;;;1.87;1.10;;;10.50;99.90;;;;;;4905352;29;20609;-85
2020/12/14 06:23:41;;;;;;;2.07;1.37;;;10.50;99.90;;;;;;4906100;29;20234;-87
2020/12/14 06:26:07;;;;;;;3.23;1.30;;;10.50;99.90;;;;;;4912638;29;20178;-84
2020/12/14 06:28:35;;;;;;;2.77;1.27;;;10.60;99.90;;;;;;4914700;29;20217;-84
2020/12/14 06:31:01;;;;;;;3.60;1.27;;;10.50;99.90;;;;;;4917437;29;20188;-85
2020/12/14 06:33:33;;;;;;;2.07;1.20;;;10.50;99.90;;;;;;4904604;29;20189;-87
2020/12/14 06:36:17;;;;;;;2.37;1.30;;;10.60;99.90;;;;;;4903094;29;20573;-89
2020/12/14 06:38:44;;;;;;;2.03;1.27;;;10.60;99.90;;;;;;4902711;29;20186;-85
2020/12/14 06:41:16;;;;;;;2.43;1.20;;;10.50;99.90;;;;;;4901654;29;20194;-85
2020/12/14 06:43:43;;;;;;;1.90;1.30;;;10.60;99.90;;;;;;4901613;29;20549;-87
2020/12/14 06:46:09;;;;;;;2.43;1.30;;;10.60;99.90;;;;;;4900336;29;20209;-83
2020/12/14 06:48:37;;;;;;;2.27;1.00;;;10.60;99.90;;;;;;4893143;29;20199;-85
2020/12/14 06:51:04;;;;;;;2.63;1.07;;;10.60;99.90;;;;;;4899266;29;20205;-85
2020/12/14 06:53:41;;;;;;;2.07;1.27;;;10.60;99.90;;;;;;4901262;29;20241;-85
2020/12/14 06:56:09;;;;;;;1.67;1.07;;;10.60;99.90;;;;;;4902655;29;20220;-87
2020/12/14 06:58:41;;;;;;;1.60;0.90;;;10.60;99.90;;;;;;4901271;29;20186;-87
2020/12/14 07:01:46;;;;;;;2.20;1.07;;;10.60;99.90;;;;;;4902579;29;20187;-85
2020/12/14 07:04:18;;;;;;;1.47;1.00;;;10.60;99.90;;;;;;4903239;29;20201;-84
2020/12/14 07:06:43;;;;;;;1.97;1.03;;;10.60;99.90;;;;;;4906169;29;20282;-85
2020/12/14 07:09:28;;;;;;;1.93;1.00;;;10.60;99.90;;;;;;4905909;29;20651;-87
2020/12/14 07:11:55;;;;;;;1.70;1.03;;;10.50;99.90;;;;;;4903891;29;20269;-84
2020/12/14 07:14:31;;;;;;;4.10;2.07;;;10.50;99.90;;;;;;4911762;29;20205;-85
2020/12/14 07:16:59;;;;;;;1.63;1.00;;;10.60;99.90;;;;;;4888883;29;20195;-85
2020/12/14 07:19:37;;;;;;;3.10;1.40;;;10.60;99.90;;;;;;4900986;29;20191;-84
2020/12/14 07:22:03;;;;;;;2.47;1.33;;;10.60;99.90;;;;;;4902470;29;20222;-87
2020/12/14 07:24:33;;;;;;;2.20;1.30;;;10.70;99.90;;;;;;4899139;29;20178;-88
2020/12/14 07:27:01;;;;;;;2.53;1.40;;;10.80;99.90;;;;;;4922712;29;20227;-85
2020/12/14 07:29:27;;;;;;;1.93;1.20;;;10.70;99.90;;;;;;4922344;29;20178;-87
2020/12/14 07:31:53;;;;;;;4.90;1.67;;;10.70;99.90;;;;;;4916942;29;20182;-86
2020/12/14 07:34:20;;;;;;;2.70;1.53;;;10.70;99.90;;;;;;4897693;29;20186;-84
2020/12/14 07:36:45;;;;;;;3.63;1.57;;;10.80;99.90;;;;;;4908474;29;20294;-87
2020/12/14 07:39:14;;;;;;;2.60;1.40;;;10.70;99.90;;;;;;4900968;29;20178;-84
2020/12/14 07:41:53;;;;;;;1.63;1.10;;;10.70;99.90;;;;;;4899811;29;20654;-86
2020/12/14 07:44:18;;;;;;;3.03;1.60;;;10.70;99.90;;;;;;4901669;29;20185;-84
2020/12/14 07:46:44;;;;;;;2.30;1.60;;;10.80;99.90;;;;;;4898679;29;20214;-85
2020/12/14 07:49:13;;;;;;;7.07;1.60;;;10.90;99.90;;;;;;4899742;29;20306;-84
2020/12/14 07:51:41;;;;;;;3.00;1.40;;;10.80;99.90;;;;;;4899338;29;20535;-82
2020/12/14 07:54:16;;;;;;;4.17;1.90;;;10.70;99.90;;;;;;4909503;29;20186;-84
2020/12/14 07:57:00;;;;;;;2.40;1.57;;;10.70;99.90;;;;;;4915611;29;20228;-84
2020/12/14 07:59:30;;;;;;;6.67;2.10;;;10.70;99.90;;;;;;4911785;29;20190;-89
2020/12/14 08:01:57;;;;;;;2.80;1.70;;;10.80;99.90;;;;;;4917038;29;20189;-87
2020/12/14 08:04:27;;;;;;;2.83;1.50;;;10.80;99.90;;;;;;4922243;29;20162;-82
2020/12/14 08:06:54;;;;;;;3.07;2.00;;;10.90;99.90;;;;;;4920876;29;20166;-83
2020/12/14 08:09:23;;;;;;;3.43;1.80;;;10.80;99.90;;;;;;4917078;29;20218;-82
2020/12/14 08:11:50;;;;;;;5.67;1.90;;;10.80;99.90;;;;;;4910070;29;20182;-83
2020/12/14 08:14:20;;;;;;;4.87;2.40;;;10.80;99.90;;;;;;4910703;29;20264;-81
2020/12/14 08:16:50;;;;;;;2.87;1.67;;;10.90;99.90;;;;;;4916902;29;20218;-82
2020/12/14 08:19:22;;;;;;;4.27;2.50;;;10.90;99.90;;;;;;4920328;29;20174;-84
2020/12/14 08:22:01;;;;;;;4.03;1.77;;;11.00;99.90;;;;;;4918676;29;20191;-86
2020/12/14 08:24:31;;;;;;;2.67;1.60;;;11.00;99.90;;;;;;4901767;29;20494;-89
2020/12/14 08:27:02;;;;;;;3.60;1.70;;;11.00;99.90;;;;;;4899902;29;20194;-86
2020/12/14 08:29:32;;;;;;;2.70;1.60;;;11.00;99.90;;;;;;4911063;29;20182;-85
2020/12/14 08:32:01;;;;;;;3.37;1.90;;;11.00;99.90;;;;;;4899899;29;20916;-88
2020/12/14 08:34:34;;;;;;;3.43;1.80;;;11.00;99.90;;;;;;4898353;29;20265;-82
2020/12/14 08:37:01;;;;;;;3.33;1.70;;;11.10;99.90;;;;;;4901295;29;20200;-88
2020/12/14 08:39:27;;;;;;;3.33;1.40;;;11.10;99.90;;;;;;4902768;29;20170;-86
2020/12/14 08:42:11;;;;;;;2.30;1.50;;;11.00;99.90;;;;;;4910893;29;20186;-89
2020/12/14 08:44:40;;;;;;;2.90;1.60;;;11.00;99.90;;;;;;4896650;29;20186;-84
2020/12/14 08:47:16;;;;;;;3.00;1.70;;;11.10;99.90;;;;;;4899439;29;20205;-86
2020/12/14 08:49:43;;;;;;;3.10;1.70;;;11.10;99.90;;;;;;4897851;29;20486;-85
2020/12/14 08:52:19;;;;;;;4.77;2.50;;;11.10;99.90;;;;;;4902547;29;20182;-87
2020/12/14 08:54:52;;;;;;;2.70;1.80;;;11.10;99.90;;;;;;4900662;29;20220;-88
2020/12/14 08:57:28;;;;;;;3.67;1.90;;;11.10;99.90;;;;;;4900699;29;20674;-87
2020/12/14 09:00:11;;;;;;;4.50;1.50;;;11.10;99.90;;;;;;4903225;29;20185;-88
2020/12/14 09:02:38;;;;;;;4.17;1.90;;;11.10;99.90;;;;;;4902401;29;20267;-87
2020/12/14 09:05:19;;;;;;;2.60;1.60;;;11.20;99.90;;;;;;4904428;29;20539;-87
2020/12/14 09:07:45;;;;;;;4.03;1.90;;;11.00;99.90;;;;;;4895448;29;20532;-88
2020/12/14 09:10:28;;;;;;;4.90;1.83;;;11.10;99.90;;;;;;4900746;29;20190;-86
2020/12/14 09:13:04;;;;;;;4.10;2.37;;;11.10;99.90;;;;;;4901152;29;20178;-88
2020/12/14 09:15:33;;;;;;;5.00;2.47;;;11.10;99.90;;;;;;4905673;29;20209;-88
2020/12/14 09:18:04;;;;;;;2.37;1.70;;;11.20;99.90;;;;;;4904692;29;20258;-88
2020/12/14 09:20:32;;;;;;;4.10;2.43;;;11.10;99.90;;;;;;4901497;29;20189;-85
2020/12/14 09:22:59;;;;;;;4.83;2.20;;;11.10;99.90;;;;;;4902663;29;20183;-87
2020/12/14 09:25:25;;;;;;;4.53;2.37;;;11.20;99.90;;;;;;4904041;29;20646;-88
2020/12/14 09:27:51;;;;;;;3.67;2.00;;;11.20;99.90;;;;;;4903657;29;20178;-88
2020/12/14 09:30:17;;;;;;;3.87;2.10;;;11.30;99.90;;;;;;4905052;29;20186;-86
2020/12/14 09:32:43;;;;;;;5.13;2.13;;;11.30;99.90;;;;;;4904664;29;20245;-86
2020/12/14 09:35:10;;;;;;;4.07;1.80;;;11.30;99.90;;;;;;4903881;29;20265;-90
2020/12/14 09:37:37;;;;;;;6.37;3.10;;;11.30;99.90;;;;;;4904911;29;20678;-87
2020/12/14 09:40:06;;;;;;;4.10;2.43;;;11.40;99.90;;;;;;4904818;29;20269;-88
2020/12/14 09:42:32;;;;;;;3.63;2.33;;;11.50;99.90;;;;;;4904344;29;20651;-85
2020/12/14 09:44:59;;;;;;;4.90;2.37;;;11.40;99.90;;;;;;4906339;29;20183;-87
2020/12/14 09:47:25;;;;;;;5.27;2.47;;;11.50;99.90;;;;;;4906407;29;20205;-86
2020/12/14 09:49:50;;;;;;;3.40;2.00;;;11.50;99.90;;;;;;4904710;29;20250;-88
2020/12/14 09:52:17;;;;;;;3.83;2.20;;;11.50;99.90;;;;;;4907311;29;20182;-85
2020/12/14 09:54:46;;;;;;;3.90;2.40;;;11.50;99.90;;;;;;4896356;29;20276;-83
2020/12/14 09:57:12;;;;;;;3.47;2.20;;;11.60;99.90;;;;;;4915247;29;20209;-84
2020/12/14 09:59:38;;;;;;;5.60;2.60;;;11.60;99.90;;;;;;4926004;29;20183;-86
2020/12/14 10:02:05;;;;;;;4.83;2.40;;;11.70;99.90;;;;;;4923409;29;20174;-85
2020/12/14 10:04:30;;;;;;;5.30;2.33;;;11.60;99.90;;;;;;4928775;28;20189;-85
2020/12/14 10:06:58;;;;;;;5.20;2.27;;;11.60;99.90;;;;;;4930179;28;20190;-87
2020/12/14 10:09:24;;;;;;;4.57;2.40;;;11.70;99.90;;;;;;4893895;29;20256;-84
2020/12/14 10:11:49;;;;;;;5.30;2.27;;;11.80;99.90;;;;;;4914453;29;20183;-86
2020/12/14 10:14:15;;;;;;;6.13;2.63;;;11.80;99.90;;;;;;4910777;29;20325;-86
2020/12/14 10:16:41;;;;;;;6.07;2.50;;;11.90;99.90;;;;;;4910733;29;20595;-86
2020/12/14 10:19:08;;;;;;;4.20;2.33;;;11.90;99.90;;;;;;4918902;29;20178;-86
2020/12/14 10:21:35;;;;;;;5.23;3.30;;;12.00;99.90;;;;;;4911480;29;20183;-87
2020/12/14 10:24:01;;;;;;;5.70;2.37;;;12.10;99.90;;;;;;4894121;29;20207;-88
2020/12/14 10:26:27;;;;;;;5.53;2.70;;;12.10;99.90;;;;;;4900755;29;20178;-82
2020/12/14 10:28:54;;;;;;;4.53;2.83;;;12.10;99.90;;;;;;4923878;29;20155;-85
2020/12/14 10:31:19;;;;;;;5.50;2.33;;;12.20;99.90;;;;;;4923927;29;20202;-84
2020/12/14 10:33:48;;;;;;;4.13;2.70;;;12.10;99.90;;;;;;4923733;29;20170;-83
2020/12/14 10:36:18;;;;;;;4.20;2.67;;;12.20;99.90;;;;;;4923977;29;20198;-84
2020/12/14 10:38:46;;;;;;;4.53;2.33;;;12.40;99.90;;;;;;4924001;29;20277;-83
2020/12/14 10:41:42;;;;;;;5.43;2.13;;;12.50;99.90;;;;;;4907376;29;20221;-84
2020/12/14 10:44:20;;;;;;;3.67;2.37;;;12.50;99.90;;;;;;4934291;29;20173;-83
2020/12/14 10:47:10;;;;;;;4.70;2.27;;;12.50;99.90;;;;;;4929082;29;20197;-81
2020/12/14 10:50:07;;;;;;;5.37;2.03;;;12.50;99.90;;;;;;4917544;29;20209;-82
2020/12/14 10:52:36;;;;;;;4.10;2.10;;;12.60;99.90;;;;;;4919741;29;20163;-85
2020/12/14 10:55:05;;;;;;;5.57;2.30;;;12.60;99.90;;;;;;4917838;29;20202;-85
2020/12/14 10:57:31;;;;;;;5.03;2.20;;;12.50;99.90;;;;;;4914401;29;20190;-84
2020/12/14 11:00:06;;;;;;;4.70;2.07;;;12.70;99.90;;;;;;4912811;29;20187;-86
2020/12/14 11:02:34;;;;;;;3.93;2.17;;;12.60;99.90;;;;;;4914825;29;20201;-86
2020/12/14 11:05:03;;;;;;;5.30;2.50;;;12.70;99.90;;;;;;4914297;29;20166;-83
2020/12/14 11:07:32;;;;;;;3.93;2.30;;;12.80;99.90;;;;;;4920153;29;20167;-83
2020/12/14 11:10:24;;;;;;;5.40;2.07;;;12.70;99.90;;;;;;4921499;29;20206;-85
2020/12/14 11:12:50;;;;;;;3.80;1.73;;;12.60;99.90;;;;;;4921619;29;20177;-81
2020/12/14 11:15:19;;;;;;;5.37;2.50;;;12.60;99.90;;;;;;4921920;29;20206;-83
2020/12/14 11:17:45;;;;;;;5.67;2.27;;;12.60;99.90;;;;;;4920566;29;20174;-85
2020/12/14 11:20:15;;;;;;;6.10;2.57;;;12.50;99.90;;;;;;4921999;29;20163;-82
2020/12/14 11:22:45;;;;;;;6.17;2.30;;;12.50;99.90;;;;;;4922382;29;20171;-87
2020/12/14 11:25:16;;;;;;;5.43;1.93;;;12.60;99.90;;;;;;4922343;29;20162;-85
2020/12/14 11:27:56;;;;;;;3.50;2.10;;;12.60;99.90;;;;;;4919506;29;20186;-82
2020/12/14 11:30:24;;;;;;;7.57;2.90;;;12.50;99.90;;;;;;4904309;29;20185;-84
2020/12/14 11:32:50;;;;;;;5.23;2.23;;;12.40;99.90;;;;;;4919093;29;20202;-82
2020/12/14 11:35:16;;;;;;;5.20;2.37;;;12.30;99.90;;;;;;4920554;29;20286;-83
2020/12/14 11:37:45;;;;;;;6.23;2.20;;;12.40;99.90;;;;;;4918242;29;20525;-87
2020/12/14 11:40:38;;;;;;;5.93;2.67;;;12.30;99.90;;;;;;4908605;29;20173;-87
2020/12/14 11:43:18;;;;;;;4.10;2.70;;;12.30;99.90;;;;;;4941266;28;20166;-87
2020/12/14 11:45:46;;;;;;;6.47;2.83;;;12.30;99.90;;;;;;4938816;28;20602;-82
2020/12/14 11:48:14;;;;;;;4.67;2.67;;;12.40;99.90;;;;;;4936502;28;20454;-84
2020/12/14 11:50:41;;;;;;;9.77;3.10;;;12.40;99.90;;;;;;4914664;29;20226;-86
2020/12/14 11:53:09;;;;;;;5.20;2.70;;;12.40;99.90;;;;;;4910430;29;20665;-87
2020/12/14 11:55:38;;;;;;;5.43;2.30;;;12.30;99.90;;;;;;4908988;29;20206;-86
2020/12/14 11:58:04;;;;;;;5.10;2.60;;;12.30;99.90;;;;;;4891764;29;20202;-88
2020/12/14 12:00:30;;;;;;;4.60;2.57;;;12.20;99.90;;;;;;4906010;29;20178;-87
2020/12/14 12:03:00;;;;;;;4.90;2.80;;;12.20;99.90;;;;;;4907735;29;20205;-88
2020/12/14 12:05:26;;;;;;;5.97;3.30;;;12.20;99.90;;;;;;4906272;29;20182;-86
2020/12/14 12:07:52;;;;;;;4.77;2.90;;;12.30;99.90;;;;;;4886387;29;20190;-86
2020/12/14 12:10:19;;;;;;;6.73;2.70;;;12.30;99.90;;;;;;4902963;29;20188;-85
2020/12/14 12:12:47;;;;;;;6.17;2.50;;;12.20;99.90;;;;;;4902198;29;20555;-86
2020/12/14 12:15:15;;;;;;;7.30;3.27;;;12.30;99.90;;;;;;4912523;29;20661;-86
2020/12/14 12:17:44;;;;;;;6.37;3.00;;;12.20;99.90;;;;;;4921116;29;20229;-87
2020/12/14 12:20:11;;;;;;;5.40;3.30;;;12.10;99.90;;;;;;4884311;29;20667;-82
2020/12/14 12:22:36;;;;;;;4.33;2.90;;;12.10;99.90;;;;;;4902997;29;20694;-83
2020/12/14 12:25:07;;;;;;;5.33;3.63;;;12.10;99.90;;;;;;4904205;29;20171;-85
2020/12/14 12:27:35;;;;;;;5.83;3.97;;;12.10;99.90;;;;;;4903258;29;20179;-86
2020/12/14 12:30:00;;;;;;;7.03;3.60;;;12.10;99.90;;;;;;4901622;29;20524;-87
2020/12/14 12:32:26;;;;;;;6.70;3.40;;;12.10;99.90;;;;;;4903455;29;20210;-84
2020/12/14 12:34:52;;;;;;;6.43;3.40;;;12.00;99.90;;;;;;4901639;29;20217;-86
2020/12/14 12:37:18;;;;;;;6.23;3.90;;;12.20;99.90;;;;;;4903595;29;20198;-85
2020/12/14 12:39:44;;;;;;;5.33;3.83;;;12.10;99.90;;;;;;4906536;29;20250;-83
2020/12/14 12:42:10;;;;;;;7.50;3.73;;;12.10;99.90;;;;;;4908892;29;20182;-89
2020/12/14 12:44:35;;;;;;;7.33;3.40;;;12.10;99.90;;;;;;4903032;29;20178;-85
2020/12/14 12:47:05;;;;;;;7.10;3.23;;;12.00;99.90;;;;;;4902433;29;20213;-84
2020/12/14 12:49:30;;;;;;;6.03;3.27;;;12.10;99.90;;;;;;4914517;29;20288;-86
2020/12/14 12:52:00;;;;;;;6.57;3.50;;;12.00;99.90;;;;;;4921312;29;20174;-90
2020/12/14 12:54:28;;;;;;;6.50;3.30;;;11.90;99.90;;;;;;4925425;29;20213;-85
2020/12/14 12:57:02;;;;;;;8.83;3.80;;;12.00;99.90;;;;;;4917661;29;20323;-87
2020/12/14 12:59:29;;;;;;;7.30;4.20;;;12.00;99.90;;;;;;4904741;29;20197;-87